Time;durP1;ratioP1;P1;durP2;ratioP2;P2;SDS_P1;SDS_P2;PMS_P1;PMS_P2;Temp;Humidity;BMP_temperature;BMP_pressure;BME280_temperature;BME280_humidity;BME280_pressure;Samples;Min_cycle;Max_cycle;Signal;HPM_P1;HPM_P2
2022/04/30 00:01:57;;;;;;;;;;;;;;;;;;5094219;28;19959;-63
2022/04/30 00:04:23;;;;;;;;;;;;;;;;;;5093525;28;19937;-65
2022/04/30 00:06:49;;;;;;;;;;;;;;;;;;5093415;28;20351;-63
2022/04/30 00:09:15;;;;;;;;;;;;;;;;;;5077287;28;19908;-63
2022/04/30 00:11:41;;;;;;;;;;;;;;;;;;5073431;28;19955;-65
2022/04/30 00:14:07;;;;;;;;;;;;;;;;;;5073131;28;19912;-63
2022/04/30 00:16:33;;;;;;;;;;;;;;;;;;5074482;28;19935;-63
2022/04/30 00:18:59;;;;;;;;;;;;;;;;;;5092339;28;20413;-65
2022/04/30 00:21:24;;;;;;;;;;;;;;;;;;5093449;28;19916;-64
2022/04/30 00:23:50;;;;;;;;;;;;;;;;;;5093153;28;20372;-62
2022/04/30 00:26:16;;;;;;;;;;;;;;;;;;5093421;28;19975;-65
2022/04/30 00:28:42;;;;;;;;;;;;;;;;;;5092942;28;19908;-63
2022/04/30 00:31:08;;;;;;;;;;;;;;;;;;5094390;28;19904;-67
2022/04/30 00:33:34;;;;;;;;;;;;;;;;;;5093130;28;20041;-65
2022/04/30 00:36:00;;;;;;;;;;;;;;;;;;5087110;28;19959;-66
2022/04/30 00:38:26;;;;;;;;;;;;;;;;;;5088840;28;20428;-65
2022/04/30 00:40:52;;;;;;;;;;;;;;;;;;5081407;28;19920;-63
2022/04/30 00:43:18;;;;;;;;;;;;;;;;;;5091171;28;19953;-66
2022/04/30 00:45:44;;;;;;;;;;;;;;;;;;5091649;28;19919;-62
2022/04/30 00:48:10;;;;;;;;;;;;;;;;;;5086510;28;19920;-63
2022/04/30 00:50:36;;;;;;;;;;;;;;;;;;5088894;28;20384;-65
2022/04/30 00:53:01;;;;;;;;;;;;;;;;;;5090406;28;20002;-66
2022/04/30 00:55:27;;;;;;;;;;;;;;;;;;5091977;28;20299;-64
2022/04/30 00:57:54;;;;;;;;;;;;;;;;;;5089877;28;19913;-64
2022/04/30 01:00:20;;;;;;;;;;;;;;;;;;5090828;28;19991;-65
2022/04/30 01:02:46;;;;;;;;;;;;;;;;;;5090157;28;20011;-65
2022/04/30 01:05:12;;;;;;;;;;;;;;;;;;5091903;28;20302;-63
2022/04/30 01:07:39;;;;;;;;;;;;;;;;;;5091955;28;19919;-62
2022/04/30 01:10:05;;;;;;;;;;;;;;;;;;5096624;28;20006;-62
2022/04/30 01:12:31;;;;;;;;;;;;;;;;;;5090866;28;20324;-65
2022/04/30 01:14:57;;;;;;;;;;;;;;;;;;5081722;28;19923;-63
2022/04/30 01:17:23;;;;;;;;;;;;;;;;;;5092144;28;19938;-62
2022/04/30 01:19:49;;;;;;;;;;;;;;;;;;5091372;28;20348;-64
2022/04/30 01:22:15;;;;;;;;;;;;;;;;;;5091433;28;19916;-65
2022/04/30 01:24:41;;;;;;;;;;;;;;;;;;5092122;28;19909;-65
2022/04/30 01:27:07;;;;;;;;;;;;;;;;;;5091327;28;19912;-65
2022/04/30 01:29:33;;;;;;;;;;;;;;;;;;5087872;28;19934;-61
2022/04/30 01:37:28;;;;;;;;;;;;;;;;;;5088909;28;19924;-61
2022/04/30 01:39:54;;;;;;;;;;;;;;;;;;5090519;28;19913;-63
2022/04/30 01:42:20;;;;;;;;;;;;;;;;;;5090077;28;19916;-63
2022/04/30 01:44:47;;;;;;;;;;;;;;;;;;5090204;28;19916;-61
2022/04/30 01:47:13;;;;;;;;;;;;;;;;;;5091533;28;19956;-66
2022/04/30 01:49:39;;;;;;;;;;;;;;;;;;5090761;28;20028;-65
2022/04/30 01:52:05;;;;;;;;;;;;;;;;;;5090267;28;19912;-66
2022/04/30 01:54:31;;;;;;;;;;;;;;;;;;5091476;28;19916;-64
2022/04/30 01:56:56;;;;;;;;;;;;;;;;;;5088641;28;19912;-63
2022/04/30 01:59:23;;;;;;;;;;;;;;;;;;5088078;28;20007;-60
2022/04/30 02:01:49;;;;;;;;;;;;;;;;;;5089833;28;19934;-65
2022/04/30 02:04:14;;;;;;;;;;;;;;;;;;5108116;28;19912;-64
2022/04/30 02:06:40;;;;;;;;;;;;;;;;;;5089874;28;19942;-65
2022/04/30 02:09:06;;;;;;;;;;;;;;;;;;5088999;28;19942;-65
2022/04/30 02:11:32;;;;;;;;;;;;;;;;;;5106257;28;19916;-64
2022/04/30 02:13:58;;;;;;;;;;;;;;;;;;5090764;28;20353;-63
2022/04/30 02:16:24;;;;;;;;;;;;;;;;;;5090606;28;19967;-62
2022/04/30 02:18:50;;;;;;;;;;;;;;;;;;5089565;28;20333;-66
2022/04/30 02:21:17;;;;;;;;;;;;;;;;;;5089656;28;19916;-65
2022/04/30 02:23:43;;;;;;;;;;;;;;;;;;5090040;28;19912;-63
2022/04/30 02:26:09;;;;;;;;;;;;;;;;;;5089150;28;20272;-65
2022/04/30 02:28:36;;;;;;;;;;;;;;;;;;5089812;28;19912;-66
2022/04/30 02:31:02;;;;;;;;;;;;;;;;;;5089853;28;19958;-64
2022/04/30 02:33:28;;;;;;;;;;;;;;;;;;5093068;28;19912;-63
2022/04/30 02:35:54;;;;;;;;;;;;;;;;;;5095809;28;20258;-65
2022/04/30 02:38:20;;;;;;;;;;;;;;;;;;5093821;28;20323;-61
2022/04/30 02:40:46;;;;;;;;;;;;;;;;;;5092232;28;20369;-62
2022/04/30 02:43:12;;;;;;;;;;;;;;;;;;5093103;28;19912;-62
2022/04/30 02:45:38;;;;;;;;;;;;;;;;;;5089622;28;19912;-62
2022/04/30 02:48:04;;;;;;;;;;;;;;;;;;5092762;28;20273;-62
2022/04/30 02:50:30;;;;;;;;;;;;;;;;;;5093172;28;19941;-65
2022/04/30 02:52:56;;;;;;;;;;;;;;;;;;5093404;28;19912;-63
2022/04/30 02:55:22;;;;;;;;;;;;;;;;;;5094357;28;19912;-62
2022/04/30 03:00:34;;;;;;;;;;;;;;;;;;5094203;28;19966;-66
2022/04/30 03:03:00;;;;;;;;;;;;;;;;;;5093874;28;20387;-65
2022/04/30 03:05:26;;;;;;;;;;;;;;;;;;5100288;28;19924;-64
2022/04/30 03:07:53;;;;;;;;;;;;;;;;;;5092597;28;19920;-62
2022/04/30 03:10:19;;;;;;;;;;;;;;;;;;5094522;28;19908;-63
2022/04/30 03:12:44;;;;;;;;;;;;;;;;;;5093538;28;20268;-63
2022/04/30 03:15:11;;;;;;;;;;;;;;;;;;5093401;28;19923;-66
2022/04/30 03:23:07;;;;;;;;;;;;;;;;;;5094353;28;19939;-64
2022/04/30 03:25:33;;;;;;;;;;;;;;;;;;5093470;28;20345;-64
2022/04/30 03:28:01;;;;;;;;;;;;;;;;;;5073666;28;22011;-65
2022/04/30 03:30:27;;;;;;;;;;;;;;;;;;5092036;28;19938;-66
2022/04/30 03:32:53;;;;;;;;;;;;;;;;;;5092652;28;19912;-67
2022/04/30 03:35:19;;;;;;;;;;;;;;;;;;5093324;28;20384;-67
2022/04/30 03:37:45;;;;;;;;;;;;;;;;;;5090698;28;19920;-65
2022/04/30 03:40:11;;;;;;;;;;;;;;;;;;5100914;28;19967;-64
2022/04/30 03:42:37;;;;;;;;;;;;;;;;;;5091707;28;20244;-63
2022/04/30 03:45:03;;;;;;;;;;;;;;;;;;5092440;28;19912;-64
2022/04/30 03:47:28;;;;;;;;;;;;;;;;;;5091674;28;20371;-62
2022/04/30 03:49:55;;;;;;;;;;;;;;;;;;5091610;28;19920;-62
2022/04/30 03:52:22;;;;;;;;;;;;;;;;;;5092101;28;19957;-63
2022/04/30 03:54:47;;;;;;;;;;;;;;;;;;5096957;28;20057;-65
2022/04/30 03:57:13;;;;;;;;;;;;;;;;;;5093721;28;19981;-63
2022/04/30 03:59:39;;;;;;;;;;;;;;;;;;5091772;28;20353;-62
2022/04/30 04:02:06;;;;;;;;;;;;;;;;;;5091782;28;19916;-62
2022/04/30 04:04:32;;;;;;;;;;;;;;;;;;5092335;28;20226;-63
2022/04/30 04:06:58;;;;;;;;;;;;;;;;;;5091134;28;19918;-63
2022/04/30 04:09:24;;;;;;;;;;;;;;;;;;5089999;28;19916;-65
2022/04/30 04:11:49;;;;;;;;;;;;;;;;;;5091133;28;19916;-64
2022/04/30 04:19:45;;;;;;;;;;;;;;;;;;5090519;28;20376;-63
2022/04/30 04:22:10;;;;;;;;;;;;;;;;;;5092134;28;19920;-64
2022/04/30 04:27:21;;;;;;;;;;;;;;;;;;5090927;28;20308;-64
2022/04/30 04:29:47;;;;;;;;;;;;;;;;;;5091990;28;19912;-65
2022/04/30 04:32:13;;;;;;;;;;;;;;;;;;5092286;28;19966;-65
2022/04/30 04:34:39;;;;;;;;;;;;;;;;;;5092419;28;19977;-60
2022/04/30 04:37:05;;;;;;;;;;;;;;;;;;5091695;28;19967;-62
2022/04/30 04:39:30;;;;;;;;;;;;;;;;;;5091596;28;19947;-64
2022/04/30 04:41:56;;;;;;;;;;;;;;;;;;5092519;28;19916;-61
2022/04/30 04:44:22;;;;;;;;;;;;;;;;;;5092069;28;20359;-64
2022/04/30 04:46:48;;;;;;;;;;;;;;;;;;5090806;28;19912;-62
2022/04/30 04:49:14;;;;;;;;;;;;;;;;;;5091577;28;19926;-62
2022/04/30 04:51:40;;;;;;;;;;;;;;;;;;5091258;28;20399;-61
2022/04/30 04:54:06;;;;;;;;;;;;;;;;;;5092926;28;19912;-64
2022/04/30 04:56:32;;;;;;;;;;;;;;;;;;5091800;28;20295;-64
2022/04/30 04:58:58;;;;;;;;;;;;;;;;;;5090570;28;20002;-62
2022/04/30 05:01:24;;;;;;;;;;;;;;;;;;5091036;28;19923;-64
2022/04/30 05:03:50;;;;;;;;;;;;;;;;;;5092523;28;19916;-65
2022/04/30 05:06:16;;;;;;;;;;;;;;;;;;5091176;28;19966;-63
2022/04/30 05:08:42;;;;;;;;;;;;;;;;;;5087336;28;19920;-63
2022/04/30 05:11:08;;;;;;;;;;;;;;;;;;5088877;28;19998;-64
2022/04/30 05:13:34;;;;;;;;;;;;;;;;;;5090398;28;19912;-64
2022/04/30 05:16:00;;;;;;;;;;;;;;;;;;5090412;28;19919;-62
2022/04/30 05:18:26;;;;;;;;;;;;;;;;;;5090859;28;20364;-65
2022/04/30 05:20:53;;;;;;;;;;;;;;;;;;5087512;28;19916;-63
2022/04/30 05:23:19;;;;;;;;;;;;;;;;;;5090676;28;20015;-65
2022/04/30 05:25:45;;;;;;;;;;;;;;;;;;5089501;28;20002;-64
2022/04/30 05:28:11;;;;;;;;;;;;;;;;;;5085573;28;19908;-66
2022/04/30 05:30:37;;;;;;;;;;;;;;;;;;5091491;28;19961;-65
2022/04/30 05:33:02;;;;;;;;;;;;;;;;;;5087877;28;19912;-63
2022/04/30 05:35:29;;;;;;;;;;;;;;;;;;5082187;28;20361;-64
2022/04/30 05:37:54;;;;;;;;;;;;;;;;;;5090723;28;19912;-63
2022/04/30 05:40:20;;;;;;;;;;;;;;;;;;5090266;28;19912;-64
2022/04/30 05:42:46;;;;;;;;;;;;;;;;;;5091110;28;19923;-64
2022/04/30 05:45:12;;;;;;;;;;;;;;;;;;5093424;28;19908;-62
2022/04/30 05:47:38;;;;;;;;;;;;;;;;;;5092568;28;19909;-63
2022/04/30 05:50:04;;;;;;;;;;;;;;;;;;5086292;28;19916;-64
2022/04/30 05:52:30;;;;;;;;;;;;;;;;;;5086661;28;19938;-64
2022/04/30 05:54:56;;;;;;;;;;;;;;;;;;5091528;28;20276;-64
2022/04/30 05:57:22;;;;;;;;;;;;;;;;;;5091381;28;19912;-63
2022/04/30 05:59:48;;;;;;;;;;;;;;;;;;5090934;28;19912;-63
2022/04/30 06:02:14;;;;;;;;;;;;;;;;;;5088558;28;19916;-62
2022/04/30 06:04:40;;;;;;;;;;;;;;;;;;5092250;28;19922;-65
2022/04/30 06:07:06;;;;;;;;;;;;;;;;;;5090931;28;19912;-65
2022/04/30 06:09:32;;;;;;;;;;;;;;;;;;5092574;28;19965;-62
2022/04/30 06:11:58;;;;;;;;;;;;;;;;;;5095665;28;19957;-62
2022/04/30 06:14:24;;;;;;;;;;;;;;;;;;5095269;28;19916;-63
2022/04/30 06:16:50;;;;;;;;;;;;;;;;;;5095093;28;20422;-63
2022/04/30 06:19:16;;;;;;;;;;;;;;;;;;5092903;28;20443;-59
2022/04/30 06:21:44;;;;;;;;;;;;;;;;;;5095402;28;19939;-61
2022/04/30 06:24:10;;;;;;;;;;;;;;;;;;5095892;28;19923;-61
2022/04/30 06:26:36;;;;;;;;;;;;;;;;;;5094887;28;19912;-61
2022/04/30 06:29:03;;;;;;;;;;;;;;;;;;5094147;28;19954;-60
2022/04/30 06:31:28;;;;;;;;;;;;;;;;;;5093695;28;20345;-61
2022/04/30 06:33:54;;;;;;;;;;;;;;;;;;5095877;28;19956;-59
2022/04/30 06:36:20;;;;;;;;;;;;;;;;;;5094476;28;20014;-60
2022/04/30 06:38:46;;;;;;;;;;;;;;;;;;5093612;28;20303;-62
2022/04/30 06:41:12;;;;;;;;;;;;;;;;;;5093485;28;19916;-63
2022/04/30 06:43:38;;;;;;;;;;;;;;;;;;5092841;28;19961;-62
2022/04/30 06:46:05;;;;;;;;;;;;;;;;;;5091190;28;19940;-59
2022/04/30 06:48:32;;;;;;;;;;;;;;;;;;5092197;28;19946;-60
2022/04/30 06:50:58;;;;;;;;;;;;;;;;;;5091987;28;20348;-61
2022/04/30 06:58:55;;;;;;;;;;;;;;;;;;5091815;28;19961;-65
2022/04/30 07:01:28;;;;;;;;;;;;;;;;;;5092964;28;19927;-64
2022/04/30 07:03:55;;;;;;;;;;;;;;;;;;5088439;28;19912;-65
2022/04/30 07:06:21;;;;;;;;;;;;;;;;;;5094267;28;19916;-64
2022/04/30 07:08:47;;;;;;;;;;;;;;;;;;5086122;28;20284;-65
2022/04/30 07:11:13;;;;;;;;;;;;;;;;;;5092710;28;19908;-62
2022/04/30 07:13:39;;;;;;;;;;;;;;;;;;5098551;28;19958;-62
2022/04/30 07:16:04;;;;;;;;;;;;;;;;;;5092565;28;19915;-64
2022/04/30 07:18:30;;;;;;;;;;;;;;;;;;5092746;28;20295;-63
2022/04/30 07:20:57;;;;;;;;;;;;;;;;;;5094534;28;19930;-74
2022/04/30 07:23:23;;;;;;;;;;;;;;;;;;5092246;28;19912;-72
2022/04/30 07:25:49;;;;;;;;;;;;;;;;;;5093780;28;20257;-63
2022/04/30 07:28:14;;;;;;;;;;;;;;;;;;5095441;28;19916;-63
2022/04/30 07:30:40;;;;;;;;;;;;;;;;;;5091873;28;20006;-64
2022/04/30 07:33:06;;;;;;;;;;;;;;;;;;5090580;28;19913;-65
2022/04/30 07:35:32;;;;;;;;;;;;;;;;;;5094474;28;19912;-66
2022/04/30 07:37:58;;;;;;;;;;;;;;;;;;5094169;28;19916;-64
2022/04/30 07:40:24;;;;;;;;;;;;;;;;;;5092874;28;19912;-65
2022/04/30 07:42:50;;;;;;;;;;;;;;;;;;5089648;28;19935;-63
2022/04/30 07:45:16;;;;;;;;;;;;;;;;;;5093423;28;19912;-63
2022/04/30 07:47:42;;;;;;;;;;;;;;;;;;5093177;28;20385;-64
2022/04/30 07:50:09;;;;;;;;;;;;;;;;;;5091776;28;19920;-63
2022/04/30 07:52:35;;;;;;;;;;;;;;;;;;5092934;28;19966;-63
2022/04/30 07:55:02;;;;;;;;;;;;;;;;;;5093037;28;19931;-62
2022/04/30 07:57:28;;;;;;;;;;;;;;;;;;5092630;28;19918;-65
2022/04/30 07:59:54;;;;;;;;;;;;;;;;;;5092574;28;19919;-65
2022/04/30 08:02:20;;;;;;;;;;;;;;;;;;5092549;28;19916;-65
2022/04/30 08:04:46;;;;;;;;;;;;;;;;;;5095225;28;19911;-64
2022/04/30 08:07:12;;;;;;;;;;;;;;;;;;5092891;28;19912;-63
2022/04/30 08:09:38;;;;;;;;;;;;;;;;;;5090584;28;20360;-64
2022/04/30 08:12:03;;;;;;;;;;;;;;;;;;5093608;28;19916;-63
2022/04/30 08:14:29;;;;;;;;;;;;;;;;;;5087317;28;19916;-64
2022/04/30 08:16:55;;;;;;;;;;;;;;;;;;5086458;28;20422;-64
2022/04/30 08:19:21;;;;;;;;;;;;;;;;;;5091556;28;19908;-65
2022/04/30 08:21:48;;;;;;;;;;;;;;;;;;5093404;28;19916;-63
2022/04/30 08:24:14;;;;;;;;;;;;;;;;;;5093629;28;20361;-65
2022/04/30 08:26:40;;;;;;;;;;;;;;;;;;5091703;28;19931;-63
2022/04/30 08:29:06;;;;;;;;;;;;;;;;;;5091226;28;20007;-65
2022/04/30 08:31:32;;;;;;;;;;;;;;;;;;5089737;28;19970;-64
2022/04/30 08:33:58;;;;;;;;;;;;;;;;;;5092942;28;20349;-64
2022/04/30 08:36:24;;;;;;;;;;;;;;;;;;5093518;28;20252;-64
2022/04/30 08:38:50;;;;;;;;;;;;;;;;;;5089177;28;19923;-63
2022/04/30 08:41:17;;;;;;;;;;;;;;;;;;5087509;28;19931;-65
2022/04/30 08:43:43;;;;;;;;;;;;;;;;;;5087429;28;19963;-64
2022/04/30 08:46:09;;;;;;;;;;;;;;;;;;5089617;28;19951;-64
2022/04/30 08:48:35;;;;;;;;;;;;;;;;;;5084538;28;19958;-63
2022/04/30 08:51:02;;;;;;;;;;;;;;;;;;5089399;28;19916;-63
2022/04/30 08:53:28;;;;;;;;;;;;;;;;;;5084501;28;19944;-63
2022/04/30 08:55:54;;;;;;;;;;;;;;;;;;5093933;28;19919;-65
2022/04/30 08:58:20;;;;;;;;;;;;;;;;;;5093439;28;20644;-65
2022/04/30 09:00:47;;;;;;;;;;;;;;;;;;5092278;28;20511;-62
2022/04/30 09:03:13;;;;;;;;;;;;;;;;;;5090946;28;19927;-61
2022/04/30 09:05:39;;;;;;;;;;;;;;;;;;5085450;28;19912;-62
2022/04/30 09:08:05;;;;;;;;;;;;;;;;;;5087899;28;20369;-63
2022/04/30 09:10:31;;;;;;;;;;;;;;;;;;5084018;28;19916;-64
2022/04/30 09:12:57;;;;;;;;;;;;;;;;;;5091321;28;19919;-62
2022/04/30 09:15:23;;;;;;;;;;;;;;;;;;5092434;28;19995;-62
2022/04/30 09:17:53;;;;;;;;;;;;;;;;;;5093694;28;19915;-61
2022/04/30 09:20:19;;;;;;;;;;;;;;;;;;5092397;28;19908;-61
2022/04/30 09:22:45;;;;;;;;;;;;;;;;;;5092070;28;19942;-61
2022/04/30 09:25:12;;;;;;;;;;;;;;;;;;5092548;28;19920;-62
2022/04/30 09:27:37;;;;;;;;;;;;;;;;;;5091015;28;19908;-64
2022/04/30 09:30:03;;;;;;;;;;;;;;;;;;5091909;28;19912;-64
2022/04/30 09:32:29;;;;;;;;;;;;;;;;;;5082085;28;19959;-64
2022/04/30 09:37:49;;;;;;;;;;;;;;;;;;5091978;28;19962;-66
2022/04/30 09:40:15;;;;;;;;;;;;;;;;;;5090858;28;20369;-66
2022/04/30 09:42:40;;;;;;;;;;;;;;;;;;5094963;28;19920;-65
2022/04/30 09:45:06;;;;;;;;;;;;;;;;;;5095669;28;19923;-64
2022/04/30 09:47:32;;;;;;;;;;;;;;;;;;5097781;28;19908;-65
2022/04/30 09:55:29;;;;;;;;;;;;;;;;;;5093074;28;19965;-65
2022/04/30 09:57:55;;;;;;;;;;;;;;;;;;5092637;28;19912;-64
2022/04/30 10:00:21;;;;;;;;;;;;;;;;;;5093984;28;20403;-65
2022/04/30 10:02:47;;;;;;;;;;;;;;;;;;5086937;28;20364;-66
2022/04/30 10:05:13;;;;;;;;;;;;;;;;;;5097907;28;20368;-68
2022/04/30 10:07:39;;;;;;;;;;;;;;;;;;5086521;28;19966;-64
2022/04/30 10:10:05;;;;;;;;;;;;;;;;;;5106665;27;20490;-64
2022/04/30 10:12:34;;;;;;;;;;;;;;;;;;5093404;28;19919;-64
2022/04/30 10:15:01;;;;;;;;;;;;;;;;;;5095600;28;19908;-64
2022/04/30 10:17:29;;;;;;;;;;;;;;;;;;5095945;28;19928;-64
2022/04/30 10:19:55;;;;;;;;;;;;;;;;;;5095089;28;19915;-64
2022/04/30 10:22:20;;;;;;;;;;;;;;;;;;5095556;28;19916;-61
2022/04/30 10:24:46;;;;;;;;;;;;;;;;;;5095709;28;19912;-64
2022/04/30 10:27:12;;;;;;;;;;;;;;;;;;5095813;28;19953;-63
2022/04/30 10:29:38;;;;;;;;;;;;;;;;;;5095214;28;19961;-64
2022/04/30 10:32:04;;;;;;;;;;;;;;;;;;5095334;28;19908;-63
2022/04/30 10:34:30;;;;;;;;;;;;;;;;;;5097159;28;19912;-63
2022/04/30 10:36:56;;;;;;;;;;;;;;;;;;5095643;28;20360;-64
2022/04/30 10:39:22;;;;;;;;;;;;;;;;;;5095064;28;20768;-63
2022/04/30 10:41:48;;;;;;;;;;;;;;;;;;5095029;28;19957;-63
2022/04/30 10:44:14;;;;;;;;;;;;;;;;;;5095203;28;19995;-64
2022/04/30 10:46:39;;;;;;;;;;;;;;;;;;5095485;28;19960;-65
2022/04/30 10:49:08;;;;;;;;;;;;;;;;;;5094786;28;20318;-63
2022/04/30 10:51:34;;;;;;;;;;;;;;;;;;5095356;28;19915;-65
2022/04/30 10:54:00;;;;;;;;;;;;;;;;;;5094590;28;19916;-70
2022/04/30 10:56:26;;;;;;;;;;;;;;;;;;5095344;28;19908;-75
2022/04/30 10:58:52;;;;;;;;;;;;;;;;;;5094653;28;20023;-77
2022/04/30 11:01:18;;;;;;;;;;;;;;;;;;5095081;28;20276;-77
2022/04/30 11:03:44;;;;;;;;;;;;;;;;;;5095192;28;20324;-75
2022/04/30 11:06:10;;;;;;;;;;;;;;;;;;5094990;28;19915;-72
2022/04/30 11:08:36;;;;;;;;;;;;;;;;;;5094616;28;20364;-71
2022/04/30 11:11:02;;;;;;;;;;;;;;;;;;5094757;28;20398;-70
2022/04/30 11:13:28;;;;;;;;;;;;;;;;;;5094907;28;20010;-70
2022/04/30 11:15:54;;;;;;;;;;;;;;;;;;5094820;28;19908;-70
2022/04/30 11:18:20;;;;;;;;;;;;;;;;;;5094624;28;19916;-70
2022/04/30 11:20:46;;;;;;;;;;;;;;;;;;5094619;28;20012;-70
2022/04/30 11:23:12;;;;;;;;;;;;;;;;;;5094572;28;19912;-70
2022/04/30 11:25:38;;;;;;;;;;;;;;;;;;5095885;28;19915;-70
2022/04/30 11:28:04;;;;;;;;;;;;;;;;;;5094440;28;19947;-70
2022/04/30 11:30:29;;;;;;;;;;;;;;;;;;5094021;28;20340;-69
2022/04/30 11:32:55;;;;;;;;;;;;;;;;;;5094287;28;19912;-69
2022/04/30 11:35:21;;;;;;;;;;;;;;;;;;5094302;28;19912;-72
2022/04/30 11:37:47;;;;;;;;;;;;;;;;;;5095632;28;19908;-72
2022/04/30 11:40:13;;;;;;;;;;;;;;;;;;5093873;28;19913;-70
2022/04/30 11:42:39;;;;;;;;;;;;;;;;;;5094169;28;19991;-71
2022/04/30 11:45:05;;;;;;;;;;;;;;;;;;5094251;28;19951;-70
2022/04/30 11:47:31;;;;;;;;;;;;;;;;;;5094153;28;19915;-70
2022/04/30 11:49:57;;;;;;;;;;;;;;;;;;5093485;28;19916;-70
2022/04/30 11:52:23;;;;;;;;;;;;;;;;;;5093972;28;19908;-71
2022/04/30 11:54:49;;;;;;;;;;;;;;;;;;5094003;28;19962;-70
2022/04/30 11:57:15;;;;;;;;;;;;;;;;;;5094005;28;19961;-69
2022/04/30 11:59:40;;;;;;;;;;;;;;;;;;5092884;28;19908;-69
2022/04/30 12:02:06;;;;;;;;;;;;;;;;;;5093728;28;20053;-64
2022/04/30 12:04:33;;;;;;;;;;;;;;;;;;5092868;28;19908;-64
2022/04/30 12:06:59;;;;;;;;;;;;;;;;;;5093730;28;19955;-65
2022/04/30 12:09:25;;;;;;;;;;;;;;;;;;5093245;28;19958;-64
2022/04/30 12:11:51;;;;;;;;;;;;;;;;;;5094750;28;19908;-64
2022/04/30 12:14:17;;;;;;;;;;;;;;;;;;5093446;28;19912;-63
2022/04/30 12:16:43;;;;;;;;;;;;;;;;;;5093355;28;19999;-64
2022/04/30 12:24:43;;;;;;;;;;;;;;;;;;5094643;28;19910;-62
2022/04/30 12:27:10;;;;;;;;;;;;;;;;;;5093235;28;20326;-63
2022/04/30 12:29:36;;;;;;;;;;;;;;;;;;5092801;28;19915;-64
2022/04/30 12:32:02;;;;;;;;;;;;;;;;;;5093264;28;19908;-63
2022/04/30 12:34:28;;;;;;;;;;;;;;;;;;5093240;28;19908;-64
2022/04/30 12:36:54;;;;;;;;;;;;;;;;;;5093137;28;19934;-62
2022/04/30 12:39:20;;;;;;;;;;;;;;;;;;5092695;28;19908;-66
2022/04/30 12:41:46;;;;;;;;;;;;;;;;;;5093151;28;19957;-63
2022/04/30 12:44:12;;;;;;;;;;;;;;;;;;5093083;28;19938;-63
2022/04/30 12:46:40;;;;;;;;;;;;;;;;;;5093043;28;20421;-65
2022/04/30 12:49:06;;;;;;;;;;;;;;;;;;5092304;28;20280;-64
2022/04/30 12:51:32;;;;;;;;;;;;;;;;;;5094328;28;20325;-64
2022/04/30 12:53:58;;;;;;;;;;;;;;;;;;5092902;28;19908;-64
2022/04/30 12:56:24;;;;;;;;;;;;;;;;;;5092856;28;20458;-62
2022/04/30 12:58:50;;;;;;;;;;;;;;;;;;5092333;28;19965;-65
2022/04/30 13:01:16;;;;;;;;;;;;;;;;;;5093808;28;19951;-62
2022/04/30 13:03:42;;;;;;;;;;;;;;;;;;5092625;28;20396;-64
2022/04/30 13:06:08;;;;;;;;;;;;;;;;;;5092547;28;19908;-62
2022/04/30 13:14:04;;;;;;;;;;;;;;;;;;5092859;28;19965;-62
2022/04/30 13:16:30;;;;;;;;;;;;;;;;;;5085541;28;19966;-62
2022/04/30 13:18:56;;;;;;;;;;;;;;;;;;5091997;28;19908;-64
2022/04/30 13:21:23;;;;;;;;;;;;;;;;;;5092377;28;19909;-64
2022/04/30 13:23:48;;;;;;;;;;;;;;;;;;5092518;28;19912;-63
2022/04/30 13:26:14;;;;;;;;;;;;;;;;;;5091187;28;19969;-63
2022/04/30 13:28:40;;;;;;;;;;;;;;;;;;5086285;28;20450;-64
2022/04/30 13:31:07;;;;;;;;;;;;;;;;;;5093103;28;19977;-63
2022/04/30 13:33:32;;;;;;;;;;;;;;;;;;5092237;28;19908;-65
2022/04/30 13:35:58;;;;;;;;;;;;;;;;;;5091334;28;19912;-63
2022/04/30 13:38:24;;;;;;;;;;;;;;;;;;5089255;28;19916;-63
2022/04/30 13:40:50;;;;;;;;;;;;;;;;;;5090896;28;19990;-63
2022/04/30 13:43:16;;;;;;;;;;;;;;;;;;5104549;28;19921;-63
2022/04/30 13:45:42;;;;;;;;;;;;;;;;;;5105690;28;19908;-62
2022/04/30 13:48:08;;;;;;;;;;;;;;;;;;5091899;28;19904;-62
2022/04/30 13:50:34;;;;;;;;;;;;;;;;;;5091939;28;20380;-64
2022/04/30 13:53:02;;;;;;;;;;;;;;;;;;5095353;28;20437;-63
2022/04/30 13:55:28;;;;;;;;;;;;;;;;;;5113835;28;19968;-64
2022/04/30 13:57:54;;;;;;;;;;;;;;;;;;5106800;28;20410;-63
2022/04/30 14:00:21;;;;;;;;;;;;;;;;;;5112099;28;19994;-65
2022/04/30 14:02:47;;;;;;;;;;;;;;;;;;5112282;28;19912;-63
2022/04/30 14:05:14;;;;;;;;;;;;;;;;;;5112547;28;19912;-64
2022/04/30 14:07:40;;;;;;;;;;;;;;;;;;5112309;28;19927;-69
2022/04/30 14:10:06;;;;;;;;;;;;;;;;;;5093837;28;20321;-69
2022/04/30 14:12:31;;;;;;;;;;;;;;;;;;5112612;28;19912;-64
2022/04/30 14:14:57;;;;;;;;;;;;;;;;;;5110335;28;19924;-63
2022/04/30 14:20:09;;;;;;;;;;;;;;;;;;5092930;28;19919;-65
2022/04/30 14:22:35;;;;;;;;;;;;;;;;;;5092870;28;19912;-63
2022/04/30 14:25:01;;;;;;;;;;;;;;;;;;5093261;28;20402;-65
2022/04/30 14:27:27;;;;;;;;;;;;;;;;;;5094019;28;19915;-63
2022/04/30 14:29:53;;;;;;;;;;;;;;;;;;5095304;28;19916;-63
2022/04/30 14:32:19;;;;;;;;;;;;;;;;;;5096826;28;20268;-63
2022/04/30 14:34:45;;;;;;;;;;;;;;;;;;5085719;28;19916;-63
2022/04/30 14:37:11;;;;;;;;;;;;;;;;;;5098761;28;19912;-64
2022/04/30 14:39:40;;;;;;;;;;;;;;;;;;5115382;28;19918;-69
2022/04/30 14:42:07;;;;;;;;;;;;;;;;;;5115835;28;20344;-63
2022/04/30 14:44:33;;;;;;;;;;;;;;;;;;5115952;28;19915;-65
2022/04/30 14:46:59;;;;;;;;;;;;;;;;;;5115747;28;19908;-62
2022/04/30 14:49:24;;;;;;;;;;;;;;;;;;5109370;28;20348;-61
2022/04/30 14:51:50;;;;;;;;;;;;;;;;;;5095330;28;19919;-65
2022/04/30 14:54:16;;;;;;;;;;;;;;;;;;5095373;28;19904;-64
2022/04/30 14:56:43;;;;;;;;;;;;;;;;;;5096528;28;20410;-62
2022/04/30 14:59:09;;;;;;;;;;;;;;;;;;5095823;28;20330;-64
2022/04/30 15:01:35;;;;;;;;;;;;;;;;;;5086896;28;20355;-64
2022/04/30 15:04:01;;;;;;;;;;;;;;;;;;5094671;28;19983;-63
2022/04/30 15:06:26;;;;;;;;;;;;;;;;;;5092750;28;19912;-63
2022/04/30 15:08:52;;;;;;;;;;;;;;;;;;5087477;28;20442;-62
2022/04/30 15:11:18;;;;;;;;;;;;;;;;;;5082349;28;19920;-63
2022/04/30 15:13:44;;;;;;;;;;;;;;;;;;5094147;28;20335;-63
2022/04/30 15:16:10;;;;;;;;;;;;;;;;;;5102722;28;19915;-65
2022/04/30 15:18:36;;;;;;;;;;;;;;;;;;5094034;28;20515;-63
2022/04/30 15:21:02;;;;;;;;;;;;;;;;;;5094495;28;20263;-63
2022/04/30 15:23:28;;;;;;;;;;;;;;;;;;5094437;28;19916;-63
2022/04/30 15:25:54;;;;;;;;;;;;;;;;;;5094314;28;19908;-65
2022/04/30 15:28:20;;;;;;;;;;;;;;;;;;5094199;28;19912;-64
2022/04/30 15:30:46;;;;;;;;;;;;;;;;;;5094193;28;19916;-65
2022/04/30 15:33:12;;;;;;;;;;;;;;;;;;5094249;28;19919;-64
2022/04/30 15:35:38;;;;;;;;;;;;;;;;;;5090802;28;19935;-62
2022/04/30 15:38:04;;;;;;;;;;;;;;;;;;5092530;28;19948;-63
2022/04/30 15:40:30;;;;;;;;;;;;;;;;;;5093525;28;20284;-63
2022/04/30 15:42:56;;;;;;;;;;;;;;;;;;5090376;28;19912;-63
2022/04/30 15:45:21;;;;;;;;;;;;;;;;;;5091584;28;19916;-61
2022/04/30 15:53:16;;;;;;;;;;;;;;;;;;5093872;28;19930;-65
2022/04/30 15:55:42;;;;;;;;;;;;;;;;;;5092463;28;20353;-60
2022/04/30 15:58:08;;;;;;;;;;;;;;;;;;5092394;28;20349;-63
2022/04/30 16:00:34;;;;;;;;;;;;;;;;;;5092011;28;19908;-62
2022/04/30 16:03:00;;;;;;;;;;;;;;;;;;5092127;28;19912;-64
2022/04/30 16:05:26;;;;;;;;;;;;;;;;;;5092252;28;19951;-66
2022/04/30 16:07:52;;;;;;;;;;;;;;;;;;5091976;28;19908;-64
2022/04/30 16:10:18;;;;;;;;;;;;;;;;;;5092215;28;19954;-60
2022/04/30 16:12:45;;;;;;;;;;;;;;;;;;5093079;28;19908;-63
2022/04/30 16:15:11;;;;;;;;;;;;;;;;;;5090928;28;19938;-65
2022/04/30 16:17:37;;;;;;;;;;;;;;;;;;5090440;28;19912;-62
2022/04/30 16:20:03;;;;;;;;;;;;;;;;;;5090318;28;19970;-63
2022/04/30 16:22:29;;;;;;;;;;;;;;;;;;5090826;28;19923;-61
2022/04/30 16:24:54;;;;;;;;;;;;;;;;;;5091883;28;19915;-61
2022/04/30 16:27:20;;;;;;;;;;;;;;;;;;5090933;28;19908;-65
2022/04/30 16:29:46;;;;;;;;;;;;;;;;;;5091478;28;19915;-63
2022/04/30 16:32:12;;;;;;;;;;;;;;;;;;5091799;28;19908;-62
2022/04/30 16:34:38;;;;;;;;;;;;;;;;;;5091708;28;19915;-63
2022/04/30 16:37:04;;;;;;;;;;;;;;;;;;5091537;28;20383;-64
2022/04/30 16:39:30;;;;;;;;;;;;;;;;;;5090872;28;19908;-68
2022/04/30 16:41:56;;;;;;;;;;;;;;;;;;5091331;28;20398;-70
2022/04/30 16:44:22;;;;;;;;;;;;;;;;;;5091490;28;19953;-70
2022/04/30 16:46:48;;;;;;;;;;;;;;;;;;5091544;28;19915;-62
2022/04/30 16:49:14;;;;;;;;;;;;;;;;;;5090933;28;19920;-62
2022/04/30 16:57:10;;;;;;;;;;;;;;;;;;5092589;28;19915;-63
2022/04/30 16:59:36;;;;;;;;;;;;;;;;;;5090862;28;19908;-62
2022/04/30 17:02:02;;;;;;;;;;;;;;;;;;5091045;28;20399;-63
2022/04/30 17:04:30;;;;;;;;;;;;;;;;;;5091378;28;19908;-65
2022/04/30 17:06:56;;;;;;;;;;;;;;;;;;5091317;28;19922;-63
2022/04/30 17:09:23;;;;;;;;;;;;;;;;;;5091516;28;20046;-63
2022/04/30 17:11:49;;;;;;;;;;;;;;;;;;5091112;28;20368;-63
2022/04/30 17:14:15;;;;;;;;;;;;;;;;;;5091491;28;20279;-71
2022/04/30 17:16:41;;;;;;;;;;;;;;;;;;5091294;28;19908;-65
2022/04/30 17:19:07;;;;;;;;;;;;;;;;;;5092081;28;19961;-64
2022/04/30 17:21:33;;;;;;;;;;;;;;;;;;5092276;28;19915;-64
2022/04/30 17:23:59;;;;;;;;;;;;;;;;;;5092225;28;19908;-63
2022/04/30 17:26:25;;;;;;;;;;;;;;;;;;5092727;28;20375;-63
2022/04/30 17:28:51;;;;;;;;;;;;;;;;;;5092116;28;19912;-62
2022/04/30 17:39:30;;;;;;;;;;;;;;;;;;5079495;28;20376;-64
2022/04/30 17:41:58;;;;;;;;;;;;;;;;;;5072200;28;19912;-65
2022/04/30 17:44:24;;;;;;;;;;;;;;;;;;5072029;28;19912;-65
2022/04/30 17:46:50;;;;;;;;;;;;;;;;;;5072200;28;19909;-64